Hebron, Maryland
Current Conditions -  °F | °C
As of 11:54 PM on Tuesday 25 Nov 2014 (Local Time) from KSBY Reporting Station
Overcast Overcast  
Wind Chill: 50°   Ceiling: 8000
Heat Index: 50°   Visibility: 10mi
Dew Point: 41°   Wind: 5mph
Humidity: 71%   Direction: 50°NE
Pressure: 30.15"   Gusts: NA
Location:  38.42°N, 75.69°W
Report Text: KSBY 260454Z AUTO 05004KT 10SM BKN080 BKN100 OVC110 10/05 A3015 RMK AO2 SLP210 T01000050 402000094
Loading
Personal Weather Stations






























Interactive Weather Map New forecast layout! Learn more

10-Day Weather Forecast

Advertisements
Track Severe Weather on mobile